sensor_id;sensor_type;location;lat;lon;timestamp;temperature;humidity
65419;DHT22;52027;50.658;14.004;2023-02-19T00:00:56;20.72;37.41
65419;DHT22;52027;50.658;14.004;2023-02-19T00:03:21;20.70;37.34
65419;DHT22;52027;50.658;14.004;2023-02-19T00:05:46;20.69;37.37
65419;DHT22;52027;50.658;14.004;2023-02-19T00:08:11;20.72;37.36
65419;DHT22;52027;50.658;14.004;2023-02-19T00:10:37;20.70;37.39
65419;DHT22;52027;50.658;14.004;2023-02-19T00:13:02;20.69;37.31
65419;DHT22;52027;50.658;14.004;2023-02-19T00:15:27;20.69;37.34
65419;DHT22;52027;50.658;14.004;2023-02-19T00:17:52;20.72;37.34
65419;DHT22;52027;50.658;14.004;2023-02-19T00:20:18;20.70;37.37
65419;DHT22;52027;50.658;14.004;2023-02-19T00:22:43;20.69;37.43
65419;DHT22;52027;50.658;14.004;2023-02-19T00:25:08;20.69;37.39
65419;DHT22;52027;50.658;14.004;2023-02-19T00:27:33;20.70;37.39
65419;DHT22;52027;50.658;14.004;2023-02-19T00:29:58;20.70;37.37
65419;DHT22;52027;50.658;14.004;2023-02-19T00:32:24;20.70;37.38
65419;DHT22;52027;50.658;14.004;2023-02-19T00:34:49;20.70;37.35
65419;DHT22;52027;50.658;14.004;2023-02-19T00:37:14;20.70;37.38
65419;DHT22;52027;50.658;14.004;2023-02-19T00:39:39;20.72;37.36
65419;DHT22;52027;50.658;14.004;2023-02-19T00:42:05;20.73;37.39
65419;DHT22;52027;50.658;14.004;2023-02-19T00:44:30;20.69;37.37
65419;DHT22;52027;50.658;14.004;2023-02-19T00:46:55;20.72;37.31
65419;DHT22;52027;50.658;14.004;2023-02-19T00:49:21;20.72;37.38
65419;DHT22;52027;50.658;14.004;2023-02-19T00:51:47;20.72;37.34
65419;DHT22;52027;50.658;14.004;2023-02-19T00:54:13;20.70;37.35
65419;DHT22;52027;50.658;14.004;2023-02-19T00:56:38;20.73;37.38
65419;DHT22;52027;50.658;14.004;2023-02-19T00:59:03;20.72;37.37
65419;DHT22;52027;50.658;14.004;2023-02-19T01:01:29;20.72;37.35
65419;DHT22;52027;50.658;14.004;2023-02-19T01:03:54;20.72;37.38
65419;DHT22;52027;50.658;14.004;2023-02-19T01:06:19;20.70;37.31
65419;DHT22;52027;50.658;14.004;2023-02-19T01:08:45;20.72;37.35
65419;DHT22;52027;50.658;14.004;2023-02-19T01:11:10;20.70;37.34
65419;DHT22;52027;50.658;14.004;2023-02-19T01:13:36;20.73;37.39
65419;DHT22;52027;50.658;14.004;2023-02-19T01:16:12;20.73;37.37
65419;DHT22;52027;50.658;14.004;2023-02-19T01:18:37;20.73;37.37
65419;DHT22;52027;50.658;14.004;2023-02-19T01:21:06;20.73;37.33
65419;DHT22;52027;50.658;14.004;2023-02-19T01:23:32;20.72;37.31
65419;DHT22;52027;50.658;14.004;2023-02-19T01:25:57;20.72;37.33
65419;DHT22;52027;50.658;14.004;2023-02-19T01:28:22;20.72;37.33
65419;DHT22;52027;50.658;14.004;2023-02-19T01:30:47;20.73;37.36
65419;DHT22;52027;50.658;14.004;2023-02-19T01:33:13;20.75;37.33
65419;DHT22;52027;50.658;14.004;2023-02-19T01:35:38;20.73;37.31
65419;DHT22;52027;50.658;14.004;2023-02-19T01:38:03;20.73;37.37
65419;DHT22;52027;50.658;14.004;2023-02-19T01:40:29;20.73;37.34
65419;DHT22;52027;50.658;14.004;2023-02-19T01:42:54;20.75;37.34
65419;DHT22;52027;50.658;14.004;2023-02-19T01:45:24;20.75;37.30
65419;DHT22;52027;50.658;14.004;2023-02-19T01:48:00;20.75;37.28
65419;DHT22;52027;50.658;14.004;2023-02-19T01:50:27;20.72;37.28
65419;DHT22;52027;50.658;14.004;2023-02-19T01:52:53;20.75;37.31
65419;DHT22;52027;50.658;14.004;2023-02-19T01:55:19;20.72;37.34
65419;DHT22;52027;50.658;14.004;2023-02-19T01:57:45;20.75;37.31
65419;DHT22;52027;50.658;14.004;2023-02-19T02:00:13;20.76;37.31
65419;DHT22;52027;50.658;14.004;2023-02-19T02:02:39;20.73;37.29
65419;DHT22;52027;50.658;14.004;2023-02-19T02:05:05;20.76;37.30
65419;DHT22;52027;50.658;14.004;2023-02-19T02:07:33;20.76;37.29
65419;DHT22;52027;50.658;14.004;2023-02-19T02:10:17;20.75;37.31
65419;DHT22;52027;50.658;14.004;2023-02-19T02:12:45;20.76;37.24
65419;DHT22;52027;50.658;14.004;2023-02-19T02:15:11;20.73;37.30
65419;DHT22;52027;50.658;14.004;2023-02-19T02:22:28;20.75;37.27
65419;DHT22;52027;50.658;14.004;2023-02-19T02:25:04;20.76;37.29
65419;DHT22;52027;50.658;14.004;2023-02-19T02:35:26;20.76;37.30
65419;DHT22;52027;50.658;14.004;2023-02-19T02:37:54;20.76;37.27
65419;DHT22;52027;50.658;14.004;2023-02-19T02:40:21;20.75;37.27
65419;DHT22;52027;50.658;14.004;2023-02-19T02:42:46;20.76;37.29
65419;DHT22;52027;50.658;14.004;2023-02-19T02:45:20;20.73;37.25
65419;DHT22;52027;50.658;14.004;2023-02-19T02:47:58;20.75;37.25
65419;DHT22;52027;50.658;14.004;2023-02-19T02:50:25;20.75;37.24
65419;DHT22;52027;50.658;14.004;2023-02-19T02:52:52;20.76;37.30
65419;DHT22;52027;50.658;14.004;2023-02-19T02:55:38;20.75;37.22
65419;DHT22;52027;50.658;14.004;2023-02-19T02:58:04;20.77;37.29
65419;DHT22;52027;50.658;14.004;2023-02-19T03:00:30;20.76;37.27
65419;DHT22;52027;50.658;14.004;2023-02-19T03:03:16;20.75;37.31
65419;DHT22;52027;50.658;14.004;2023-02-19T03:05:42;20.73;37.30
65419;DHT22;52027;50.658;14.004;2023-02-19T03:08:22;20.76;37.25
65419;DHT22;52027;50.658;14.004;2023-02-19T03:10:50;20.75;37.21
65419;DHT22;52027;50.658;14.004;2023-02-19T03:13:18;20.75;37.27
65419;DHT22;52027;50.658;14.004;2023-02-19T03:16:05;20.73;37.23
65419;DHT22;52027;50.658;14.004;2023-02-19T03:18:52;20.73;37.27
65419;DHT22;52027;50.658;14.004;2023-02-19T03:21:37;20.75;37.24
65419;DHT22;52027;50.658;14.004;2023-02-19T03:24:03;20.75;37.27
65419;DHT22;52027;50.658;14.004;2023-02-19T03:26:49;20.75;37.24
65419;DHT22;52027;50.658;14.004;2023-02-19T03:29:18;20.73;37.22
65419;DHT22;52027;50.658;14.004;2023-02-19T03:31:47;20.72;37.23
65419;DHT22;52027;50.658;14.004;2023-02-19T03:34:14;20.75;37.27
65419;DHT22;52027;50.658;14.004;2023-02-19T03:36:45;20.73;37.27
65419;DHT22;52027;50.658;14.004;2023-02-19T03:39:13;20.73;37.27
65419;DHT22;52027;50.658;14.004;2023-02-19T03:41:43;20.70;37.27
65419;DHT22;52027;50.658;14.004;2023-02-19T03:44:15;20.73;37.30
65419;DHT22;52027;50.658;14.004;2023-02-19T03:46:45;20.72;37.31
65419;DHT22;52027;50.658;14.004;2023-02-19T03:51:58;20.72;37.30
65419;DHT22;52027;50.658;14.004;2023-02-19T03:59:53;20.73;37.30
65419;DHT22;52027;50.658;14.004;2023-02-19T04:02:31;20.72;37.27
65419;DHT22;52027;50.658;14.004;2023-02-19T04:04:58;20.73;37.25
65419;DHT22;52027;50.658;14.004;2023-02-19T04:07:24;20.73;37.28
65419;DHT22;52027;50.658;14.004;2023-02-19T04:09:50;20.72;37.25
65419;DHT22;52027;50.658;14.004;2023-02-19T04:12:16;20.70;37.28
65419;DHT22;52027;50.658;14.004;2023-02-19T04:14:45;20.70;37.28
65419;DHT22;52027;50.658;14.004;2023-02-19T04:17:24;20.73;37.27
65419;DHT22;52027;50.658;14.004;2023-02-19T04:19:51;20.69;37.27
65419;DHT22;52027;50.658;14.004;2023-02-19T04:22:16;20.72;37.25
65419;DHT22;52027;50.658;14.004;2023-02-19T04:24:46;20.70;37.25
65419;DHT22;52027;50.658;14.004;2023-02-19T04:27:12;20.72;37.25
65419;DHT22;52027;50.658;14.004;2023-02-19T04:29:37;20.69;37.29
65419;DHT22;52027;50.658;14.004;2023-02-19T04:32:02;20.69;37.27
65419;DHT22;52027;50.658;14.004;2023-02-19T04:34:28;20.70;37.24
65419;DHT22;52027;50.658;14.004;2023-02-19T04:36:53;20.70;37.24
65419;DHT22;52027;50.658;14.004;2023-02-19T04:39:18;20.69;37.32
65419;DHT22;52027;50.658;14.004;2023-02-19T04:41:43;20.73;37.28
65419;DHT22;52027;50.658;14.004;2023-02-19T04:44:09;20.70;37.24
65419;DHT22;52027;50.658;14.004;2023-02-19T04:46:34;20.72;37.30
65419;DHT22;52027;50.658;14.004;2023-02-19T04:48:59;20.72;37.27
65419;DHT22;52027;50.658;14.004;2023-02-19T04:51:24;20.70;37.25
65419;DHT22;52027;50.658;14.004;2023-02-19T04:53:50;20.70;37.25
65419;DHT22;52027;50.658;14.004;2023-02-19T04:56:15;20.70;37.27
65419;DHT22;52027;50.658;14.004;2023-02-19T04:58:41;20.72;37.24
65419;DHT22;52027;50.658;14.004;2023-02-19T05:01:07;20.73;37.30
65419;DHT22;52027;50.658;14.004;2023-02-19T05:03:32;20.73;37.30
65419;DHT22;52027;50.658;14.004;2023-02-19T05:06:03;20.75;37.19
65419;DHT22;52027;50.658;14.004;2023-02-19T05:08:28;20.70;37.30
65419;DHT22;52027;50.658;14.004;2023-02-19T05:10:56;20.72;37.22
65419;DHT22;52027;50.658;14.004;2023-02-19T05:13:21;20.73;37.25
65419;DHT22;52027;50.658;14.004;2023-02-19T05:16:00;20.72;37.25
65419;DHT22;52027;50.658;14.004;2023-02-19T05:18:26;20.73;37.21
65419;DHT22;52027;50.658;14.004;2023-02-19T05:20:51;20.73;37.24
65419;DHT22;52027;50.658;14.004;2023-02-19T05:23:17;20.72;37.24
65419;DHT22;52027;50.658;14.004;2023-02-19T05:25:43;20.73;37.20
65419;DHT22;52027;50.658;14.004;2023-02-19T05:28:08;20.72;37.25
65419;DHT22;52027;50.658;14.004;2023-02-19T05:30:44;20.73;37.27
65419;DHT22;52027;50.658;14.004;2023-02-19T05:33:09;20.73;37.21
65419;DHT22;52027;50.658;14.004;2023-02-19T05:35:39;20.73;37.25
65419;DHT22;52027;50.658;14.004;2023-02-19T05:38:04;20.73;37.23
65419;DHT22;52027;50.658;14.004;2023-02-19T05:40:31;20.73;37.24
65419;DHT22;52027;50.658;14.004;2023-02-19T05:42:57;20.75;37.24
65419;DHT22;52027;50.658;14.004;2023-02-19T05:45:22;20.73;37.25
65419;DHT22;52027;50.658;14.004;2023-02-19T05:47:47;20.73;37.24
65419;DHT22;52027;50.658;14.004;2023-02-19T05:50:13;20.73;37.27
65419;DHT22;52027;50.658;14.004;2023-02-19T05:52:38;20.75;37.24
65419;DHT22;52027;50.658;14.004;2023-02-19T05:55:03;20.75;37.25
65419;DHT22;52027;50.658;14.004;2023-02-19T05:57:28;20.75;37.21
65419;DHT22;52027;50.658;14.004;2023-02-19T05:59:55;20.75;37.21
65419;DHT22;52027;50.658;14.004;2023-02-19T06:02:20;20.75;37.24
65419;DHT22;52027;50.658;14.004;2023-02-19T06:04:45;20.76;37.21
65419;DHT22;52027;50.658;14.004;2023-02-19T06:07:10;20.75;37.27
65419;DHT22;52027;50.658;14.004;2023-02-19T06:09:35;20.75;37.17
65419;DHT22;52027;50.658;14.004;2023-02-19T06:12:01;20.75;37.25
65419;DHT22;52027;50.658;14.004;2023-02-19T06:14:26;20.76;37.23
65419;DHT22;52027;50.658;14.004;2023-02-19T06:16:51;20.75;37.25
65419;DHT22;52027;50.658;14.004;2023-02-19T06:19:16;20.76;37.23
65419;DHT22;52027;50.658;14.004;2023-02-19T06:21:42;20.75;37.25
65419;DHT22;52027;50.658;14.004;2023-02-19T06:24:07;20.73;37.25
65419;DHT22;52027;50.658;14.004;2023-02-19T06:26:33;20.75;37.24
65419;DHT22;52027;50.658;14.004;2023-02-19T06:28:58;20.75;37.25
65419;DHT22;52027;50.658;14.004;2023-02-19T06:31:23;20.73;37.21
65419;DHT22;52027;50.658;14.004;2023-02-19T06:33:49;20.75;37.25
65419;DHT22;52027;50.658;14.004;2023-02-19T06:36:16;20.76;37.20
65419;DHT22;52027;50.658;14.004;2023-02-19T06:38:41;20.76;37.29
65419;DHT22;52027;50.658;14.004;2023-02-19T06:41:07;20.75;37.23
65419;DHT22;52027;50.658;14.004;2023-02-19T06:43:33;20.76;37.21
65419;DHT22;52027;50.658;14.004;2023-02-19T06:45:59;20.76;37.27
65419;DHT22;52027;50.658;14.004;2023-02-19T06:48:25;20.77;37.25
65419;DHT22;52027;50.658;14.004;2023-02-19T06:50:51;20.76;37.24
65419;DHT22;52027;50.658;14.004;2023-02-19T06:53:16;20.76;37.27
65419;DHT22;52027;50.658;14.004;2023-02-19T06:55:41;20.77;37.31
65419;DHT22;52027;50.658;14.004;2023-02-19T06:58:06;20.76;37.24
65419;DHT22;52027;50.658;14.004;2023-02-19T07:00:32;20.76;37.30
65419;DHT22;52027;50.658;14.004;2023-02-19T07:02:57;20.76;37.30
65419;DHT22;52027;50.658;14.004;2023-02-19T07:05:22;20.76;37.24
65419;DHT22;52027;50.658;14.004;2023-02-19T07:07:48;20.75;37.24
65419;DHT22;52027;50.658;14.004;2023-02-19T07:10:14;20.76;37.27
65419;DHT22;52027;50.658;14.004;2023-02-19T07:12:39;20.77;37.23
65419;DHT22;52027;50.658;14.004;2023-02-19T07:15:04;20.79;37.24
65419;DHT22;52027;50.658;14.004;2023-02-19T07:17:30;20.76;37.25
65419;DHT22;52027;50.658;14.004;2023-02-19T07:19:55;20.77;37.24
65419;DHT22;52027;50.658;14.004;2023-02-19T07:22:20;20.77;37.27
65419;DHT22;52027;50.658;14.004;2023-02-19T07:24:45;20.75;37.24
65419;DHT22;52027;50.658;14.004;2023-02-19T07:27:11;20.76;37.24
65419;DHT22;52027;50.658;14.004;2023-02-19T07:29:36;20.77;37.26
65419;DHT22;52027;50.658;14.004;2023-02-19T07:32:01;20.76;37.32
65419;DHT22;52027;50.658;14.004;2023-02-19T07:34:26;20.77;37.29
65419;DHT22;52027;50.658;14.004;2023-02-19T07:36:52;20.76;37.29
65419;DHT22;52027;50.658;14.004;2023-02-19T07:39:17;20.77;37.25
65419;DHT22;52027;50.658;14.004;2023-02-19T07:41:42;20.79;37.26
65419;DHT22;52027;50.658;14.004;2023-02-19T07:44:07;20.80;37.24
65419;DHT22;52027;50.658;14.004;2023-02-19T07:46:33;20.80;37.26
65419;DHT22;52027;50.658;14.004;2023-02-19T07:48:58;20.77;37.24
65419;DHT22;52027;50.658;14.004;2023-02-19T07:51:23;20.77;37.28
65419;DHT22;52027;50.658;14.004;2023-02-19T07:53:49;20.75;37.29
65419;DHT22;52027;50.658;14.004;2023-02-19T07:56:14;20.77;37.29
65419;DHT22;52027;50.658;14.004;2023-02-19T07:58:40;20.77;37.27
65419;DHT22;52027;50.658;14.004;2023-02-19T08:01:06;20.77;37.29
65419;DHT22;52027;50.658;14.004;2023-02-19T08:03:32;20.79;37.24
65419;DHT22;52027;50.658;14.004;2023-02-19T08:05:57;20.77;37.26
65419;DHT22;52027;50.658;14.004;2023-02-19T08:08:22;20.77;37.29
65419;DHT22;52027;50.658;14.004;2023-02-19T08:10:47;20.76;37.27
65419;DHT22;52027;50.658;14.004;2023-02-19T08:13:31;20.76;37.24
65419;DHT22;52027;50.658;14.004;2023-02-19T08:18:26;20.76;37.23
65419;DHT22;52027;50.658;14.004;2023-02-19T08:20:53;20.75;37.25
65419;DHT22;52027;50.658;14.004;2023-02-19T08:23:18;20.76;37.26
65419;DHT22;52027;50.658;14.004;2023-02-19T08:25:47;20.75;37.27
65419;DHT22;52027;50.658;14.004;2023-02-19T08:28:12;20.75;37.29
65419;DHT22;52027;50.658;14.004;2023-02-19T08:30:38;20.76;37.27
65419;DHT22;52027;50.658;14.004;2023-02-19T08:33:04;20.75;37.30
65419;DHT22;52027;50.658;14.004;2023-02-19T08:35:30;20.73;37.33
65419;DHT22;52027;50.658;14.004;2023-02-19T08:37:56;20.72;37.34
65419;DHT22;52027;50.658;14.004;2023-02-19T08:40:21;20.75;37.30
65419;DHT22;52027;50.658;14.004;2023-02-19T08:42:46;20.73;37.28
65419;DHT22;52027;50.658;14.004;2023-02-19T08:45:12;20.75;37.30
65419;DHT22;52027;50.658;14.004;2023-02-19T08:47:37;20.75;37.33
65419;DHT22;52027;50.658;14.004;2023-02-19T08:50:04;20.75;37.32
65419;DHT22;52027;50.658;14.004;2023-02-19T08:52:29;20.79;37.39
65419;DHT22;52027;50.658;14.004;2023-02-19T08:54:55;20.77;37.31
65419;DHT22;52027;50.658;14.004;2023-02-19T08:57:20;20.76;37.33
65419;DHT22;52027;50.658;14.004;2023-02-19T08:59:46;20.77;37.31
65419;DHT22;52027;50.658;14.004;2023-02-19T09:02:11;20.76;37.26
65419;DHT22;52027;50.658;14.004;2023-02-19T09:04:37;20.77;37.31
65419;DHT22;52027;50.658;14.004;2023-02-19T09:07:02;20.79;37.30
65419;DHT22;52027;50.658;14.004;2023-02-19T09:09:31;20.77;37.34
65419;DHT22;52027;50.658;14.004;2023-02-19T09:11:56;20.77;37.36
65419;DHT22;52027;50.658;14.004;2023-02-19T09:14:22;20.76;37.37
65419;DHT22;52027;50.658;14.004;2023-02-19T09:16:47;20.76;37.30
65419;DHT22;52027;50.658;14.004;2023-02-19T09:19:12;20.76;37.36
65419;DHT22;52027;50.658;14.004;2023-02-19T09:21:37;20.76;37.31
65419;DHT22;52027;50.658;14.004;2023-02-19T09:24:03;20.76;37.36
65419;DHT22;52027;50.658;14.004;2023-02-19T09:26:28;20.77;37.36
65419;DHT22;52027;50.658;14.004;2023-02-19T09:28:53;20.77;37.34
65419;DHT22;52027;50.658;14.004;2023-02-19T09:31:18;20.77;37.35
65419;DHT22;52027;50.658;14.004;2023-02-19T09:33:44;20.76;37.35
65419;DHT22;52027;50.658;14.004;2023-02-19T09:36:09;20.79;37.39
65419;DHT22;52027;50.658;14.004;2023-02-19T09:38:35;20.76;37.39
65419;DHT22;52027;50.658;14.004;2023-02-19T09:41:05;20.76;37.32
65419;DHT22;52027;50.658;14.004;2023-02-19T09:43:30;20.77;37.33
65419;DHT22;52027;50.658;14.004;2023-02-19T09:46:00;20.80;37.33
65419;DHT22;52027;50.658;14.004;2023-02-19T09:48:26;20.83;37.30
65419;DHT22;52027;50.658;14.004;2023-02-19T09:50:52;20.83;37.26
65419;DHT22;52027;50.658;14.004;2023-02-19T09:53:19;20.84;37.28
65419;DHT22;52027;50.658;14.004;2023-02-19T09:55:45;20.86;37.27
65419;DHT22;52027;50.658;14.004;2023-02-19T10:00:38;20.86;37.17
65419;DHT22;52027;50.658;14.004;2023-02-19T10:03:04;20.90;37.20
65419;DHT22;52027;50.658;14.004;2023-02-19T10:05:31;20.90;37.23
65419;DHT22;52027;50.658;14.004;2023-02-19T10:07:57;20.93;37.13
65419;DHT22;52027;50.658;14.004;2023-02-19T10:10:24;20.94;37.15
65419;DHT22;52027;50.658;14.004;2023-02-19T10:12:53;20.97;37.09
65419;DHT22;52027;50.658;14.004;2023-02-19T10:15:24;20.98;37.04
65419;DHT22;52027;50.658;14.004;2023-02-19T10:17:53;20.98;37.02
65419;DHT22;52027;50.658;14.004;2023-02-19T10:20:19;21.01;37.05
65419;DHT22;52027;50.658;14.004;2023-02-19T10:22:48;20.98;37.06
65419;DHT22;52027;50.658;14.004;2023-02-19T10:25:14;21.04;37.01
65419;DHT22;52027;50.658;14.004;2023-02-19T10:27:40;21.03;36.98
65419;DHT22;52027;50.658;14.004;2023-02-19T10:30:05;21.06;36.99
65419;DHT22;52027;50.658;14.004;2023-02-19T10:32:31;21.06;36.92
65419;DHT22;52027;50.658;14.004;2023-02-19T10:35:06;21.10;36.91
65419;DHT22;52027;50.658;14.004;2023-02-19T10:37:31;21.11;36.89
65419;DHT22;52027;50.658;14.004;2023-02-19T10:39:56;21.11;36.90
65419;DHT22;52027;50.658;14.004;2023-02-19T10:42:22;21.14;36.83
65419;DHT22;52027;50.658;14.004;2023-02-19T10:44:50;21.17;36.79
65419;DHT22;52027;50.658;14.004;2023-02-19T10:47:17;21.17;36.81
65419;DHT22;52027;50.658;14.004;2023-02-19T10:49:43;21.18;36.82
65419;DHT22;52027;50.658;14.004;2023-02-19T10:54:41;21.21;36.78
65419;DHT22;52027;50.658;14.004;2023-02-19T10:57:15;21.20;36.70
65419;DHT22;52027;50.658;14.004;2023-02-19T11:02:15;21.30;36.66
65419;DHT22;52027;50.658;14.004;2023-02-19T11:04:41;21.34;36.56
65419;DHT22;52027;50.658;14.004;2023-02-19T11:07:09;21.35;36.54
65419;DHT22;52027;50.658;14.004;2023-02-19T11:09:39;21.37;36.48
65419;DHT22;52027;50.658;14.004;2023-02-19T11:12:05;21.44;36.41
65419;DHT22;52027;50.658;14.004;2023-02-19T11:14:32;21.45;36.38
65419;DHT22;52027;50.658;14.004;2023-02-19T11:16:58;21.49;36.34
65419;DHT22;52027;50.658;14.004;2023-02-19T11:21:52;21.52;36.26
65419;DHT22;52027;50.658;14.004;2023-02-19T11:24:25;21.61;36.18
65419;DHT22;52027;50.658;14.004;2023-02-19T11:26:52;21.62;36.16
65419;DHT22;52027;50.658;14.004;2023-02-19T11:29:19;21.65;36.11
65419;DHT22;52027;50.658;14.004;2023-02-19T11:31:46;21.67;36.10
65419;DHT22;52027;50.658;14.004;2023-02-19T11:36:45;21.72;36.04
65419;DHT22;52027;50.658;14.004;2023-02-19T11:41:44;21.76;35.98
65419;DHT22;52027;50.658;14.004;2023-02-19T11:49:38;21.79;35.93
65419;DHT22;52027;50.658;14.004;2023-02-19T11:52:13;21.80;35.94
65419;DHT22;52027;50.658;14.004;2023-02-19T11:57:16;21.83;35.88
65419;DHT22;52027;50.658;14.004;2023-02-19T11:59:55;21.86;35.85
65419;DHT22;52027;50.658;14.004;2023-02-19T12:02:26;21.86;35.77
65419;DHT22;52027;50.658;14.004;2023-02-19T12:07:37;21.90;35.78
65419;DHT22;52027;50.658;14.004;2023-02-19T12:12:47;21.93;35.70
65419;DHT22;52027;50.658;14.004;2023-02-19T12:28:05;21.96;35.70
65419;DHT22;52027;50.658;14.004;2023-02-19T12:35:54;21.99;35.66
65419;DHT22;52027;50.658;14.004;2023-02-19T12:38:27;22.00;35.65
65419;DHT22;52027;50.658;14.004;2023-02-19T12:43:42;22.04;35.60
65419;DHT22;52027;50.658;14.004;2023-02-19T12:46:11;22.06;35.62
65419;DHT22;52027;50.658;14.004;2023-02-19T12:51:11;22.01;35.61
65419;DHT22;52027;50.658;14.004;2023-02-19T12:53:42;22.04;35.61
65419;DHT22;52027;50.658;14.004;2023-02-19T12:56:11;22.07;35.57
65419;DHT22;52027;50.658;14.004;2023-02-19T12:58:42;22.10;35.61
65419;DHT22;52027;50.658;14.004;2023-02-19T13:01:09;22.10;35.51
65419;DHT22;52027;50.658;14.004;2023-02-19T13:03:44;22.11;35.52
65419;DHT22;52027;50.658;14.004;2023-02-19T13:08:49;22.22;35.41
65419;DHT22;52027;50.658;14.004;2023-02-19T13:11:23;22.25;35.35
65419;DHT22;52027;50.658;14.004;2023-02-19T13:13:53;22.33;35.32
65419;DHT22;52027;50.658;14.004;2023-02-19T13:16:20;22.38;35.22
65419;DHT22;52027;50.658;14.004;2023-02-19T13:18:49;22.41;35.15
65419;DHT22;52027;50.658;14.004;2023-02-19T13:21:16;22.49;35.06
65419;DHT22;52027;50.658;14.004;2023-02-19T13:24:03;22.57;35.00
65419;DHT22;52027;50.658;14.004;2023-02-19T13:37:02;22.89;34.73
65419;DHT22;52027;50.658;14.004;2023-02-19T13:39:28;22.96;34.67
65419;DHT22;52027;50.658;14.004;2023-02-19T13:41:55;23.03;34.45
65419;DHT22;52027;50.658;14.004;2023-02-19T13:44:27;23.04;34.45
65419;DHT22;52027;50.658;14.004;2023-02-19T13:46:53;23.07;34.30
65419;DHT22;52027;50.658;14.004;2023-02-19T13:49:23;23.10;34.28
65419;DHT22;52027;50.658;14.004;2023-02-19T13:51:49;23.13;34.19
65419;DHT22;52027;50.658;14.004;2023-02-19T13:54:34;23.17;34.17
65419;DHT22;52027;50.658;14.004;2023-02-19T13:59:47;23.24;34.08
65419;DHT22;52027;50.658;14.004;2023-02-19T14:04:45;23.30;34.14
65419;DHT22;52027;50.658;14.004;2023-02-19T14:14:37;23.44;33.87
65419;DHT22;52027;50.658;14.004;2023-02-19T14:24:54;23.58;33.75
65419;DHT22;52027;50.658;14.004;2023-02-19T14:27:19;23.61;33.71
65419;DHT22;52027;50.658;14.004;2023-02-19T14:29:45;23.65;33.70
65419;DHT22;52027;50.658;14.004;2023-02-19T14:32:11;23.68;33.66
65419;DHT22;52027;50.658;14.004;2023-02-19T14:34:43;23.72;33.50
65419;DHT22;52027;50.658;14.004;2023-02-19T14:37:10;23.74;33.49
65419;DHT22;52027;50.658;14.004;2023-02-19T14:39:39;23.78;33.45
65419;DHT22;52027;50.658;14.004;2023-02-19T14:42:06;23.79;33.46
65419;DHT22;52027;50.658;14.004;2023-02-19T14:44:39;23.85;33.45
65419;DHT22;52027;50.658;14.004;2023-02-19T14:47:10;23.88;33.38
65419;DHT22;52027;50.658;14.004;2023-02-19T14:49:41;23.86;33.38
65419;DHT22;52027;50.658;14.004;2023-02-19T14:52:10;23.88;33.34
65419;DHT22;52027;50.658;14.004;2023-02-19T14:54:46;23.92;33.32
65419;DHT22;52027;50.658;14.004;2023-02-19T14:57:18;23.88;33.29
65419;DHT22;52027;50.658;14.004;2023-02-19T14:59:50;23.88;33.29
65419;DHT22;52027;50.658;14.004;2023-02-19T15:02:16;23.89;33.23
65419;DHT22;52027;50.658;14.004;2023-02-19T15:04:41;23.86;33.32
65419;DHT22;52027;50.658;14.004;2023-02-19T15:07:07;23.88;33.34
65419;DHT22;52027;50.658;14.004;2023-02-19T15:09:36;23.84;33.35
65419;DHT22;52027;50.658;14.004;2023-02-19T15:12:02;23.86;33.30
65419;DHT22;52027;50.658;14.004;2023-02-19T15:14:28;23.86;33.38
65419;DHT22;52027;50.658;14.004;2023-02-19T15:17:01;23.86;33.34
65419;DHT22;52027;50.658;14.004;2023-02-19T15:19:28;23.84;33.38
65419;DHT22;52027;50.658;14.004;2023-02-19T15:21:56;23.85;33.35
65419;DHT22;52027;50.658;14.004;2023-02-19T15:24:22;23.86;33.32
65419;DHT22;52027;50.658;14.004;2023-02-19T15:26:48;23.85;33.36
65419;DHT22;52027;50.658;14.004;2023-02-19T15:29:19;23.81;33.33
65419;DHT22;52027;50.658;14.004;2023-02-19T15:31:48;23.81;33.38
65419;DHT22;52027;50.658;14.004;2023-02-19T15:34:14;23.82;33.43
65419;DHT22;52027;50.658;14.004;2023-02-19T15:36:40;23.79;33.34
65419;DHT22;52027;50.658;14.004;2023-02-19T15:39:06;23.81;33.39
65419;DHT22;52027;50.658;14.004;2023-02-19T15:41:32;23.77;33.43
65419;DHT22;52027;50.658;14.004;2023-02-19T15:46:26;23.75;33.45
65419;DHT22;52027;50.658;14.004;2023-02-19T15:48:57;23.77;33.40
65419;DHT22;52027;50.658;14.004;2023-02-19T15:51:26;23.74;33.48
65419;DHT22;52027;50.658;14.004;2023-02-19T15:53:54;23.72;33.48
65419;DHT22;52027;50.658;14.004;2023-02-19T15:56:22;23.71;33.50
65419;DHT22;52027;50.658;14.004;2023-02-19T15:58:53;23.72;33.54
65419;DHT22;52027;50.658;14.004;2023-02-19T16:01:25;23.67;33.48
65419;DHT22;52027;50.658;14.004;2023-02-19T16:03:51;23.62;33.51
65419;DHT22;52027;50.658;14.004;2023-02-19T16:06:18;23.60;33.55
65419;DHT22;52027;50.658;14.004;2023-02-19T16:09:03;23.57;33.62
65419;DHT22;52027;50.658;14.004;2023-02-19T16:16:45;23.50;33.79
65419;DHT22;52027;50.658;14.004;2023-02-19T16:19:11;23.46;33.87
65419;DHT22;52027;50.658;14.004;2023-02-19T16:21:36;23.46;33.81
65419;DHT22;52027;50.658;14.004;2023-02-19T16:26:38;23.36;33.91
65419;DHT22;52027;50.658;14.004;2023-02-19T16:29:03;23.31;33.98
65419;DHT22;52027;50.658;14.004;2023-02-19T16:31:28;23.34;33.98
65419;DHT22;52027;50.658;14.004;2023-02-19T16:33:53;23.28;34.00
65419;DHT22;52027;50.658;14.004;2023-02-19T16:36:20;23.26;34.07
65419;DHT22;52027;50.658;14.004;2023-02-19T16:38:59;23.23;34.13
65419;DHT22;52027;50.658;14.004;2023-02-19T16:41:27;23.20;34.05
65419;DHT22;52027;50.658;14.004;2023-02-19T16:43:52;23.14;34.20
65419;DHT22;52027;50.658;14.004;2023-02-19T16:46:17;23.13;33.97
65419;DHT22;52027;50.658;14.004;2023-02-19T16:48:44;23.12;34.03
65419;DHT22;52027;50.658;14.004;2023-02-19T16:51:10;23.06;34.13
65419;DHT22;52027;50.658;14.004;2023-02-19T16:53:40;23.06;34.26
65419;DHT22;52027;50.658;14.004;2023-02-19T16:56:07;23.03;34.23
65419;DHT22;52027;50.658;14.004;2023-02-19T16:58:36;22.99;34.23
65419;DHT22;52027;50.658;14.004;2023-02-19T17:01:01;22.99;34.21
65419;DHT22;52027;50.658;14.004;2023-02-19T17:03:27;22.95;34.26
65419;DHT22;52027;50.658;14.004;2023-02-19T17:05:52;22.93;34.44
65419;DHT22;52027;50.658;14.004;2023-02-19T17:10:56;22.86;34.57
65419;DHT22;52027;50.658;14.004;2023-02-19T17:13:22;22.85;34.56
65419;DHT22;52027;50.658;14.004;2023-02-19T17:15:47;22.83;34.60
65419;DHT22;52027;50.658;14.004;2023-02-19T17:18:12;22.81;34.59